createdAt,value
2022-08-05T17:35:20.581Z,38.16
2022-08-05T17:37:48.499Z,38.53
2022-08-05T17:40:18.258Z,39.29
2022-08-05T17:42:51.965Z,40.00
2022-08-05T17:45:22.462Z,39.90
2022-08-05T17:47:55.854Z,40.83
2022-08-05T17:50:30.307Z,41.87
2022-08-05T17:53:01.963Z,42.49
2022-08-05T17:55:38.125Z,42.39
2022-08-05T17:58:13.562Z,43.92
2022-08-05T18:00:47.640Z,44.70
2022-08-05T18:03:55.857Z,43.97
2022-08-05T18:06:15.136Z,45.89
2022-08-05T18:08:45.508Z,45.82
2022-08-05T18:11:24.254Z,47.00
2022-08-05T18:14:00.408Z,45.39
2022-08-05T18:16:50.982Z,45.85
2022-08-05T18:19:18.414Z,46.64
2022-08-05T18:22:08.864Z,46.39
2022-08-05T18:24:38.078Z,46.51
2022-08-05T18:27:06.432Z,47.73
2022-08-05T18:29:41.532Z,47.89
2022-08-05T18:32:13.021Z,49.36
2022-08-05T18:34:41.038Z,48.88
2022-08-05T18:37:12.500Z,48.51
2022-08-05T18:40:33.595Z,48.76
2022-08-05T18:42:34.517Z,48.83
2022-08-05T18:45:04.508Z,49.90
2022-08-05T18:47:31.971Z,49.31
2022-08-05T18:50:19.767Z,49.57
2022-08-05T18:52:50.784Z,52.08
2022-08-05T18:55:19.045Z,50.14
2022-08-05T18:57:52.584Z,49.99
2022-08-05T19:00:25.009Z,50.91
2022-08-05T19:02:55.747Z,49.99
2022-08-05T19:06:13.043Z,49.88
2022-08-05T19:08:13.691Z,49.47
2022-08-05T19:10:41.999Z,49.34
2022-08-05T19:13:12.264Z,49.64
2022-08-05T19:15:57.224Z,49.98
2022-08-05T19:18:33.515Z,50.15
2022-08-05T19:21:00.183Z,50.36
2022-08-05T19:24:06.718Z,51.10
2022-08-05T19:26:14.703Z,51.26
2022-08-05T19:28:43.375Z,51.03
2022-08-05T19:31:13.157Z,51.57
2022-08-05T19:33:48.675Z,50.58
2022-08-05T19:36:26.330Z,51.02
2022-08-05T19:39:00.651Z,51.00
2022-08-05T19:42:06.351Z,51.74
2022-08-05T19:44:21.069Z,51.72
2022-08-05T19:46:51.504Z,51.87
2022-08-05T19:49:18.504Z,52.37
2022-08-05T19:52:05.821Z,51.48
2022-08-05T19:54:34.615Z,52.39
2022-08-05T19:57:09.340Z,51.95
2022-08-05T19:59:56.247Z,51.88
2022-08-05T20:02:29.648Z,51.05
2022-08-05T20:05:02.474Z,50.49
2022-08-05T20:07:48.064Z,50.77
2022-08-05T20:10:17.277Z,51.45
2022-08-05T20:12:49.209Z,50.75
2022-08-05T20:15:48.907Z,50.63
2022-08-05T20:18:10.205Z,50.70
2022-08-05T20:20:56.928Z,50.46
2022-08-05T20:23:39.453Z,50.08
2022-08-05T20:26:17.020Z,50.22
2022-08-05T20:28:52.818Z,50.30
2022-08-05T20:31:28.786Z,51.93
2022-08-05T20:34:10.387Z,50.12
2022-08-05T20:36:43.273Z,50.08
2022-08-05T20:39:13.288Z,50.15
2022-08-05T20:41:48.307Z,53.02
2022-08-05T20:44:29.803Z,54.47
2022-08-05T20:47:04.520Z,56.36
2022-08-05T20:49:39.710Z,57.97
2022-08-05T20:52:10.656Z,61.58
2022-08-05T20:54:43.557Z,65.36
2022-08-05T20:57:43.319Z,67.39
2022-08-05T21:00:41.381Z,70.10
2022-08-05T21:03:07.218Z,65.83
2022-08-05T21:05:48.392Z,70.86
2022-08-05T21:08:26.860Z,71.88
2022-08-05T21:10:59.920Z,66.22
2022-08-05T21:13:48.075Z,65.71
2022-08-05T21:16:29.391Z,65.28
2022-08-05T21:19:02.132Z,66.00
2022-08-05T21:21:39.639Z,65.43
2022-08-05T21:24:21.088Z,66.56
2022-08-05T21:26:53.309Z,66.58
2022-08-05T21:29:31.805Z,67.59
2022-08-05T21:32:01.244Z,68.22
2022-08-05T21:34:31.675Z,68.71
2022-08-05T21:36:59.679Z,69.87
